sensor_id;sensor_type;location;lat;lon;timestamp;pressure;altitude;pressure_sealevel;temperature;humidity
35694;BME280;21812;55.536;37.664;2022-10-19T00:00:26;99145.88;;;13.44;64.89
35694;BME280;21812;55.536;37.664;2022-10-19T00:02:52;99139.78;;;13.37;63.69
35694;BME280;21812;55.536;37.664;2022-10-19T00:05:17;99142.34;;;13.25;63.65
35694;BME280;21812;55.536;37.664;2022-10-19T00:07:43;99139.03;;;13.05;64.21
35694;BME280;21812;55.536;37.664;2022-10-19T00:10:09;99148.69;;;12.81;64.71
35694;BME280;21812;55.536;37.664;2022-10-19T00:12:35;99144.16;;;12.56;65.68
35694;BME280;21812;55.536;37.664;2022-10-19T00:15:02;99136.84;;;12.70;67.79
35694;BME280;21812;55.536;37.664;2022-10-19T00:17:29;99129.72;;;13.07;68.79
35694;BME280;21812;55.536;37.664;2022-10-19T00:19:55;99125.13;;;13.15;64.90
35694;BME280;21812;55.536;37.664;2022-10-19T00:22:20;99125.72;;;13.17;64.43
35694;BME280;21812;55.536;37.664;2022-10-19T00:24:46;99115.75;;;13.24;64.25
35694;BME280;21812;55.536;37.664;2022-10-19T00:27:12;99111.94;;;13.13;64.02
35694;BME280;21812;55.536;37.664;2022-10-19T00:29:37;99103.63;;;12.96;64.41
35694;BME280;21812;55.536;37.664;2022-10-19T00:32:03;99103.72;;;12.89;64.77
35694;BME280;21812;55.536;37.664;2022-10-19T00:34:29;99097.53;;;12.64;64.98
35694;BME280;21812;55.536;37.664;2022-10-19T00:36:55;99105.81;;;12.30;65.78
35694;BME280;21812;55.536;37.664;2022-10-19T00:39:21;99096.00;;;12.18;66.92
35694;BME280;21812;55.536;37.664;2022-10-19T00:41:47;99088.34;;;12.53;68.01
35694;BME280;21812;55.536;37.664;2022-10-19T00:46:42;99095.72;;;12.32;67.29
35694;BME280;21812;55.536;37.664;2022-10-19T00:49:09;99086.59;;;12.40;66.94
35694;BME280;21812;55.536;37.664;2022-10-19T00:51:42;99077.44;;;12.55;67.01
35694;BME280;21812;55.536;37.664;2022-10-19T00:54:09;99088.88;;;12.37;66.53
35694;BME280;21812;55.536;37.664;2022-10-19T00:56:38;99067.66;;;12.10;69.31
35694;BME280;21812;55.536;37.664;2022-10-19T00:59:05;99076.88;;;12.46;68.91
35694;BME280;21812;55.536;37.664;2022-10-19T01:01:33;99079.75;;;12.44;66.30
35694;BME280;21812;55.536;37.664;2022-10-19T01:04:06;99087.75;;;12.76;65.52
35694;BME280;21812;55.536;37.664;2022-10-19T01:06:33;99078.38;;;12.35;66.83
35694;BME280;21812;55.536;37.664;2022-10-19T01:09:00;99092.25;;;12.25;68.40
35694;BME280;21812;55.536;37.664;2022-10-19T01:14:24;99086.00;;;12.38;67.80
35694;BME280;21812;55.536;37.664;2022-10-19T01:26:03;99085.72;;;12.15;67.61
35694;BME280;21812;55.536;37.664;2022-10-19T01:31:01;99055.81;;;11.86;68.20
35694;BME280;21812;55.536;37.664;2022-10-19T01:38:40;99069.44;;;11.78;68.92
35694;BME280;21812;55.536;37.664;2022-10-19T01:41:27;99037.63;;;12.01;69.16
35694;BME280;21812;55.536;37.664;2022-10-19T01:43:58;99053.75;;;12.51;69.28
35694;BME280;21812;55.536;37.664;2022-10-19T01:48:58;99023.31;;;12.89;66.06
35694;BME280;21812;55.536;37.664;2022-10-19T01:51:30;99009.13;;;12.45;65.94
35694;BME280;21812;55.536;37.664;2022-10-19T01:54:00;99006.09;;;12.35;66.94
35694;BME280;21812;55.536;37.664;2022-10-19T01:56:27;99022.69;;;12.69;68.52
35694;BME280;21812;55.536;37.664;2022-10-19T01:58:57;98999.06;;;12.84;67.61
35694;BME280;21812;55.536;37.664;2022-10-19T02:01:29;98989.69;;;13.12;68.11
35694;BME280;21812;55.536;37.664;2022-10-19T02:03:56;98960.84;;;13.07;66.04
35694;BME280;21812;55.536;37.664;2022-10-19T02:06:22;99005.31;;;13.52;65.53
35694;BME280;21812;55.536;37.664;2022-10-19T02:08:51;98992.84;;;13.58;65.04
35694;BME280;21812;55.536;37.664;2022-10-19T02:11:18;98999.19;;;13.45;63.72
35694;BME280;21812;55.536;37.664;2022-10-19T02:13:57;98945.16;;;13.11;63.70
35694;BME280;21812;55.536;37.664;2022-10-19T02:16:31;98981.63;;;13.30;63.39
35694;BME280;21812;55.536;37.664;2022-10-19T02:18:59;98993.09;;;13.01;63.73
35694;BME280;21812;55.536;37.664;2022-10-19T02:21:27;98992.63;;;12.67;64.79
35694;BME280;21812;55.536;37.664;2022-10-19T02:23:52;99001.94;;;12.39;65.61
35694;BME280;21812;55.536;37.664;2022-10-19T02:26:18;98977.75;;;12.27;66.57
35694;BME280;21812;55.536;37.664;2022-10-19T02:28:45;98981.78;;;12.37;66.70
35694;BME280;21812;55.536;37.664;2022-10-19T02:31:11;98980.06;;;12.49;66.69
35694;BME280;21812;55.536;37.664;2022-10-19T02:33:37;98979.22;;;12.48;66.42
35694;BME280;21812;55.536;37.664;2022-10-19T02:36:03;98983.91;;;12.28;66.83
35694;BME280;21812;55.536;37.664;2022-10-19T02:38:29;98970.66;;;12.40;68.77
35694;BME280;21812;55.536;37.664;2022-10-19T02:41:19;98975.53;;;12.86;67.85
35694;BME280;21812;55.536;37.664;2022-10-19T02:43:49;98967.56;;;12.80;67.61
35694;BME280;21812;55.536;37.664;2022-10-19T02:48:48;98910.41;;;13.04;66.46
35694;BME280;21812;55.536;37.664;2022-10-19T02:51:34;98967.22;;;13.25;63.52
35694;BME280;21812;55.536;37.664;2022-10-19T02:54:01;98962.84;;;12.38;66.30
35694;BME280;21812;55.536;37.664;2022-10-19T02:56:27;98953.28;;;12.24;68.23
35694;BME280;21812;55.536;37.664;2022-10-19T02:58:52;98953.56;;;12.59;69.53
35694;BME280;21812;55.536;37.664;2022-10-19T03:01:23;98950.09;;;12.59;66.79
35694;BME280;21812;55.536;37.664;2022-10-19T03:03:48;98940.88;;;12.29;67.92
35694;BME280;21812;55.536;37.664;2022-10-19T03:06:14;98936.66;;;12.40;67.63
35694;BME280;21812;55.536;37.664;2022-10-19T03:08:40;98935.06;;;12.76;66.89
35694;BME280;21812;55.536;37.664;2022-10-19T03:11:06;98941.88;;;12.90;65.45
35694;BME280;21812;55.536;37.664;2022-10-19T03:13:31;98940.94;;;12.66;66.27
35694;BME280;21812;55.536;37.664;2022-10-19T03:16:05;98902.75;;;12.34;66.75
35694;BME280;21812;55.536;37.664;2022-10-19T03:18:30;98936.69;;;12.15;67.53
35694;BME280;21812;55.536;37.664;2022-10-19T03:21:07;98926.00;;;12.15;69.89
35694;BME280;21812;55.536;37.664;2022-10-19T03:23:34;98918.84;;;12.09;68.29
35694;BME280;21812;55.536;37.664;2022-10-19T03:26:00;98930.97;;;12.11;68.34
35694;BME280;21812;55.536;37.664;2022-10-19T03:28:26;98927.72;;;12.03;68.32
35694;BME280;21812;55.536;37.664;2022-10-19T03:30:51;98929.94;;;11.81;69.22
35694;BME280;21812;55.536;37.664;2022-10-19T03:33:17;98911.94;;;12.20;72.34
35694;BME280;21812;55.536;37.664;2022-10-19T03:35:43;98915.19;;;12.65;70.27
35694;BME280;21812;55.536;37.664;2022-10-19T03:38:08;98914.63;;;13.12;68.33
35694;BME280;21812;55.536;37.664;2022-10-19T03:40:34;98909.19;;;13.00;65.28
35694;BME280;21812;55.536;37.664;2022-10-19T03:42:59;98903.22;;;12.68;66.99
35694;BME280;21812;55.536;37.664;2022-10-19T03:45:25;98887.13;;;12.86;69.55
35694;BME280;21812;55.536;37.664;2022-10-19T03:47:50;98904.16;;;12.92;66.60
35694;BME280;21812;55.536;37.664;2022-10-19T03:50:16;98895.63;;;12.83;69.68
35694;BME280;21812;55.536;37.664;2022-10-19T03:52:43;98885.38;;;12.43;70.28
35694;BME280;21812;55.536;37.664;2022-10-19T03:55:13;98883.41;;;12.69;73.33
35694;BME280;21812;55.536;37.664;2022-10-19T03:57:42;98881.91;;;13.22;71.94
35694;BME280;21812;55.536;37.664;2022-10-19T04:00:09;98844.63;;;13.20;66.24
35694;BME280;21812;55.536;37.664;2022-10-19T04:02:38;98877.72;;;13.56;65.32
35694;BME280;21812;55.536;37.664;2022-10-19T04:05:04;98882.28;;;13.25;64.85
35694;BME280;21812;55.536;37.664;2022-10-19T04:07:30;98880.41;;;12.96;66.25
35694;BME280;21812;55.536;37.664;2022-10-19T04:09:55;98884.53;;;12.80;66.66
35694;BME280;21812;55.536;37.664;2022-10-19T04:12:21;98880.56;;;12.64;66.79
35694;BME280;21812;55.536;37.664;2022-10-19T04:14:47;98881.31;;;12.52;67.68
35694;BME280;21812;55.536;37.664;2022-10-19T04:17:12;98881.84;;;12.24;67.97
35694;BME280;21812;55.536;37.664;2022-10-19T04:19:38;98872.22;;;11.98;70.69
35694;BME280;21812;55.536;37.664;2022-10-19T04:22:03;98868.81;;;12.09;71.69
35694;BME280;21812;55.536;37.664;2022-10-19T04:24:29;98855.50;;;12.58;72.26
35694;BME280;21812;55.536;37.664;2022-10-19T04:26:55;98852.09;;;13.00;70.93
35694;BME280;21812;55.536;37.664;2022-10-19T04:29:23;98849.72;;;13.10;67.08
35694;BME280;21812;55.536;37.664;2022-10-19T04:31:50;98847.03;;;12.80;67.15
35694;BME280;21812;55.536;37.664;2022-10-19T04:34:17;98852.00;;;12.76;68.51
35694;BME280;21812;55.536;37.664;2022-10-19T04:36:43;98852.81;;;12.77;67.60
35694;BME280;21812;55.536;37.664;2022-10-19T04:39:09;98851.28;;;12.69;67.26
35694;BME280;21812;55.536;37.664;2022-10-19T04:41:36;98822.72;;;12.44;67.86
35694;BME280;21812;55.536;37.664;2022-10-19T04:44:03;98855.34;;;12.71;69.96
35694;BME280;21812;55.536;37.664;2022-10-19T04:46:31;98856.72;;;12.93;68.34
35694;BME280;21812;55.536;37.664;2022-10-19T04:48:57;98846.31;;;13.03;66.95
35694;BME280;21812;55.536;37.664;2022-10-19T04:51:24;98847.78;;;13.29;68.45
35694;BME280;21812;55.536;37.664;2022-10-19T04:53:50;98848.59;;;13.72;72.68
35694;BME280;21812;55.536;37.664;2022-10-19T04:56:22;98829.00;;;14.30;79.41
35694;BME280;21812;55.536;37.664;2022-10-19T04:58:48;98852.19;;;14.48;75.67
35694;BME280;21812;55.536;37.664;2022-10-19T05:01:16;98848.81;;;14.53;79.82
35694;BME280;21812;55.536;37.664;2022-10-19T05:03:42;98843.09;;;14.49;78.03
35694;BME280;21812;55.536;37.664;2022-10-19T05:06:09;98839.03;;;14.23;73.13
35694;BME280;21812;55.536;37.664;2022-10-19T05:08:35;98839.97;;;14.17;70.51
35694;BME280;21812;55.536;37.664;2022-10-19T05:11:03;98803.56;;;13.97;69.41
35694;BME280;21812;55.536;37.664;2022-10-19T05:13:31;98813.00;;;13.76;67.30
35694;BME280;21812;55.536;37.664;2022-10-19T05:15:58;98822.72;;;13.89;69.23
35694;BME280;21812;55.536;37.664;2022-10-19T05:18:25;98816.66;;;14.05;68.70
35694;BME280;21812;55.536;37.664;2022-10-19T05:20:51;98818.59;;;14.34;69.01
35694;BME280;21812;55.536;37.664;2022-10-19T05:23:24;98820.28;;;14.52;66.67
35694;BME280;21812;55.536;37.664;2022-10-19T05:26:07;98794.19;;;14.23;67.54
35694;BME280;21812;55.536;37.664;2022-10-19T05:28:33;98822.16;;;14.63;68.89
35694;BME280;21812;55.536;37.664;2022-10-19T05:31:14;98825.34;;;14.89;67.03
35694;BME280;21812;55.536;37.664;2022-10-19T05:33:40;98816.94;;;15.14;65.47
35694;BME280;21812;55.536;37.664;2022-10-19T05:36:16;98818.19;;;15.40;63.05
35694;BME280;21812;55.536;37.664;2022-10-19T05:38:44;98825.44;;;15.56;63.48
35694;BME280;21812;55.536;37.664;2022-10-19T05:41:10;98821.88;;;15.68;62.50
35694;BME280;21812;55.536;37.664;2022-10-19T05:43:36;98813.03;;;15.72;61.12
35694;BME280;21812;55.536;37.664;2022-10-19T05:46:06;98813.03;;;15.55;60.66
35694;BME280;21812;55.536;37.664;2022-10-19T05:48:33;98801.25;;;14.94;60.33
35694;BME280;21812;55.536;37.664;2022-10-19T05:51:01;98806.00;;;15.03;62.33
35694;BME280;21812;55.536;37.664;2022-10-19T05:53:28;98807.97;;;15.08;62.12
35694;BME280;21812;55.536;37.664;2022-10-19T05:55:53;98800.09;;;15.35;61.84
35694;BME280;21812;55.536;37.664;2022-10-19T05:58:19;98790.91;;;15.48;60.91
35694;BME280;21812;55.536;37.664;2022-10-19T06:00:56;98793.47;;;15.26;58.76
35694;BME280;21812;55.536;37.664;2022-10-19T06:03:22;98790.66;;;15.04;59.52
35694;BME280;21812;55.536;37.664;2022-10-19T06:05:49;98795.09;;;15.10;60.31
35694;BME280;21812;55.536;37.664;2022-10-19T06:08:15;98799.59;;;15.21;60.54
35694;BME280;21812;55.536;37.664;2022-10-19T06:10:42;98793.97;;;15.06;58.72
35694;BME280;21812;55.536;37.664;2022-10-19T06:13:08;98791.22;;;14.89;60.73
35694;BME280;21812;55.536;37.664;2022-10-19T06:15:34;98806.16;;;14.97;59.98
35694;BME280;21812;55.536;37.664;2022-10-19T06:18:04;98798.66;;;14.99;59.65
35694;BME280;21812;55.536;37.664;2022-10-19T06:20:29;98796.75;;;14.82;58.47
35694;BME280;21812;55.536;37.664;2022-10-19T06:22:55;98781.72;;;14.98;59.54
35694;BME280;21812;55.536;37.664;2022-10-19T06:25:21;98786.59;;;15.01;58.32
35694;BME280;21812;55.536;37.664;2022-10-19T06:27:46;98789.22;;;15.13;57.51
35694;BME280;21812;55.536;37.664;2022-10-19T06:30:14;98785.19;;;15.28;57.46
35694;BME280;21812;55.536;37.664;2022-10-19T06:32:40;98785.00;;;15.51;57.60
35694;BME280;21812;55.536;37.664;2022-10-19T06:35:06;98784.38;;;15.78;56.76
35694;BME280;21812;55.536;37.664;2022-10-19T06:37:31;98781.94;;;15.59;55.87
35694;BME280;21812;55.536;37.664;2022-10-19T06:39:57;98779.47;;;15.41;58.01
35694;BME280;21812;55.536;37.664;2022-10-19T06:42:23;98788.03;;;15.55;57.36
35694;BME280;21812;55.536;37.664;2022-10-19T06:44:48;98788.59;;;15.57;56.33
35694;BME280;21812;55.536;37.664;2022-10-19T06:47:14;98790.72;;;15.38;57.56
35694;BME280;21812;55.536;37.664;2022-10-19T06:49:39;98789.56;;;15.34;56.48
35694;BME280;21812;55.536;37.664;2022-10-19T06:52:05;98778.81;;;15.68;58.38
35694;BME280;21812;55.536;37.664;2022-10-19T06:54:32;98781.16;;;15.98;56.22
35694;BME280;21812;55.536;37.664;2022-10-19T06:56:57;98781.69;;;14.81;54.14
35694;BME280;21812;55.536;37.664;2022-10-19T06:59:23;98773.97;;;13.80;56.20
35694;BME280;21812;55.536;37.664;2022-10-19T07:01:48;98781.19;;;13.02;58.70
35694;BME280;21812;55.536;37.664;2022-10-19T07:04:14;98785.59;;;12.48;60.56
35694;BME280;21812;55.536;37.664;2022-10-19T07:06:40;98784.59;;;12.12;61.82
35694;BME280;21812;55.536;37.664;2022-10-19T07:09:05;98780.38;;;11.79;63.02
35694;BME280;21812;55.536;37.664;2022-10-19T07:11:31;98785.59;;;11.49;64.21
35694;BME280;21812;55.536;37.664;2022-10-19T07:13:56;98778.97;;;11.26;65.34
35694;BME280;21812;55.536;37.664;2022-10-19T07:16:22;98771.31;;;11.05;65.75
35694;BME280;21812;55.536;37.664;2022-10-19T07:18:50;98723.91;;;10.68;66.43
35694;BME280;21812;55.536;37.664;2022-10-19T07:21:16;98770.69;;;10.78;67.76
35694;BME280;21812;55.536;37.664;2022-10-19T07:23:44;98753.16;;;10.50;67.79
35694;BME280;21812;55.536;37.664;2022-10-19T07:26:24;98758.91;;;10.53;68.59
35694;BME280;21812;55.536;37.664;2022-10-19T07:28:54;98743.34;;;10.44;68.76
35694;BME280;21812;55.536;37.664;2022-10-19T07:31:22;98750.31;;;10.45;69.10
35694;BME280;21812;55.536;37.664;2022-10-19T07:33:52;98760.97;;;10.51;69.37
35694;BME280;21812;55.536;37.664;2022-10-19T07:36:18;98756.84;;;10.49;69.76
35694;BME280;21812;55.536;37.664;2022-10-19T07:38:44;98765.50;;;10.51;69.81
35694;BME280;21812;55.536;37.664;2022-10-19T07:41:15;98738.41;;;10.47;69.92
35694;BME280;21812;55.536;37.664;2022-10-19T07:43:42;98756.22;;;10.53;70.08
35694;BME280;21812;55.536;37.664;2022-10-19T07:46:12;98752.75;;;10.46;70.15
35694;BME280;21812;55.536;37.664;2022-10-19T07:48:38;98763.03;;;10.49;70.05
35694;BME280;21812;55.536;37.664;2022-10-19T07:51:05;98763.50;;;10.40;70.18
35694;BME280;21812;55.536;37.664;2022-10-19T07:53:31;98756.91;;;10.29;70.75
35694;BME280;21812;55.536;37.664;2022-10-19T07:56:08;98760.84;;;10.20;71.33
35694;BME280;21812;55.536;37.664;2022-10-19T07:58:34;98774.84;;;10.15;72.14
35694;BME280;21812;55.536;37.664;2022-10-19T08:01:06;98751.88;;;10.01;72.41
35694;BME280;21812;55.536;37.664;2022-10-19T08:03:33;98772.16;;;10.15;72.28
35694;BME280;21812;55.536;37.664;2022-10-19T08:06:00;98774.44;;;10.11;71.83
35694;BME280;21812;55.536;37.664;2022-10-19T08:08:26;98778.72;;;10.12;71.91
35694;BME280;21812;55.536;37.664;2022-10-19T08:10:52;98775.03;;;10.13;72.25
35694;BME280;21812;55.536;37.664;2022-10-19T08:13:17;98780.78;;;10.17;72.29
35694;BME280;21812;55.536;37.664;2022-10-19T08:15:45;98777.72;;;10.13;72.24
35694;BME280;21812;55.536;37.664;2022-10-19T08:18:11;98785.09;;;10.11;72.48
35694;BME280;21812;55.536;37.664;2022-10-19T08:20:39;98749.66;;;9.91;72.88
35694;BME280;21812;55.536;37.664;2022-10-19T08:23:05;98777.72;;;10.13;73.00
35694;BME280;21812;55.536;37.664;2022-10-19T08:25:31;98775.03;;;10.13;72.38
35694;BME280;21812;55.536;37.664;2022-10-19T08:27:56;98776.91;;;10.13;72.81
35694;BME280;21812;55.536;37.664;2022-10-19T08:30:22;98772.63;;;10.05;71.93
35694;BME280;21812;55.536;37.664;2022-10-19T08:32:47;98766.84;;;10.08;72.81
35694;BME280;21812;55.536;37.664;2022-10-19T08:35:13;98764.78;;;10.10;72.55
35694;BME280;21812;55.536;37.664;2022-10-19T08:37:39;98759.44;;;10.10;72.30
35694;BME280;21812;55.536;37.664;2022-10-19T08:40:05;98772.56;;;10.18;72.65
35694;BME280;21812;55.536;37.664;2022-10-19T08:45:30;98776.50;;;10.09;72.93
35694;BME280;21812;55.536;37.664;2022-10-19T08:50:42;98739.19;;;9.96;73.05
35694;BME280;21812;55.536;37.664;2022-10-19T08:58:26;98738.09;;;10.10;72.33
35694;BME280;21812;55.536;37.664;2022-10-19T09:04:01;98700.22;;;9.95;72.27
35694;BME280;21812;55.536;37.664;2022-10-19T09:09:17;98770.56;;;10.07;73.88
35694;BME280;21812;55.536;37.664;2022-10-19T09:11:47;98761.91;;;10.12;73.88
35694;BME280;21812;55.536;37.664;2022-10-19T09:17:02;98762.47;;;10.34;72.45
35694;BME280;21812;55.536;37.664;2022-10-19T09:19:28;98767.22;;;10.18;72.71
35694;BME280;21812;55.536;37.664;2022-10-19T09:21:59;98739.75;;;10.05;72.68
35694;BME280;21812;55.536;37.664;2022-10-19T09:27:19;98768.06;;;10.12;73.57
35694;BME280;21812;55.536;37.664;2022-10-19T09:29:57;98779.56;;;10.06;74.00
35694;BME280;21812;55.536;37.664;2022-10-19T09:32:29;98743.56;;;9.77;74.78
35694;BME280;21812;55.536;37.664;2022-10-19T09:34:59;98748.47;;;9.73;74.40
35694;BME280;21812;55.536;37.664;2022-10-19T09:37:30;98778.38;;;9.89;74.39
35694;BME280;21812;55.536;37.664;2022-10-19T09:39:56;98770.63;;;9.81;75.06
35694;BME280;21812;55.536;37.664;2022-10-19T09:42:28;98773.91;;;9.83;75.88
35694;BME280;21812;55.536;37.664;2022-10-19T09:44:56;98770.81;;;9.79;75.83
35694;BME280;21812;55.536;37.664;2022-10-19T09:47:34;98781.88;;;9.89;76.21
35694;BME280;21812;55.536;37.664;2022-10-19T09:50:20;98764.44;;;9.80;75.99
35694;BME280;21812;55.536;37.664;2022-10-19T09:52:49;98779.63;;;9.79;76.17
35694;BME280;21812;55.536;37.664;2022-10-19T09:55:37;98783.72;;;9.89;76.10
35694;BME280;21812;55.536;37.664;2022-10-19T09:58:24;98783.69;;;9.95;75.51
35694;BME280;21812;55.536;37.664;2022-10-19T10:00:51;98778.38;;;9.82;75.32
35694;BME280;21812;55.536;37.664;2022-10-19T10:03:34;98752.16;;;9.72;75.45
35694;BME280;21812;55.536;37.664;2022-10-19T10:06:08;98773.66;;;9.84;75.81
35694;BME280;21812;55.536;37.664;2022-10-19T10:08:37;98771.44;;;9.74;76.05
35694;BME280;21812;55.536;37.664;2022-10-19T10:11:11;98783.31;;;9.78;76.40
35694;BME280;21812;55.536;37.664;2022-10-19T10:13:42;98776.38;;;9.64;76.52
35694;BME280;21812;55.536;37.664;2022-10-19T10:16:17;98765.94;;;9.56;76.39
35694;BME280;21812;55.536;37.664;2022-10-19T10:19:02;98781.28;;;9.74;77.40
35694;BME280;21812;55.536;37.664;2022-10-19T10:21:30;98739.91;;;9.45;76.70
35694;BME280;21812;55.536;37.664;2022-10-19T10:26:59;98782.50;;;9.85;77.55
35694;BME280;21812;55.536;37.664;2022-10-19T10:32:03;98770.63;;;9.74;77.12
35694;BME280;21812;55.536;37.664;2022-10-19T10:34:44;98755.88;;;9.71;77.58
35694;BME280;21812;55.536;37.664;2022-10-19T10:37:18;98748.47;;;9.67;76.72
35694;BME280;21812;55.536;37.664;2022-10-19T10:39:50;98766.72;;;9.83;77.22
35694;BME280;21812;55.536;37.664;2022-10-19T10:42:20;98780.03;;;9.83;76.68
35694;BME280;21812;55.536;37.664;2022-10-19T10:44:49;98743.16;;;9.60;76.69
35694;BME280;21812;55.536;37.664;2022-10-19T10:47:18;98774.28;;;9.79;77.19
35694;BME280;21812;55.536;37.664;2022-10-19T10:49:56;98738.66;;;9.67;77.17
35694;BME280;21812;55.536;37.664;2022-10-19T10:52:24;98750.94;;;9.68;77.26
35694;BME280;21812;55.536;37.664;2022-10-19T10:57:37;98772.88;;;9.70;77.52
35694;BME280;21812;55.536;37.664;2022-10-19T11:00:14;98781.91;;;9.69;77.68
35694;BME280;21812;55.536;37.664;2022-10-19T11:03:07;98785.00;;;9.73;77.94
35694;BME280;21812;55.536;37.664;2022-10-19T11:05:40;98764.69;;;9.38;77.85
35694;BME280;21812;55.536;37.664;2022-10-19T11:08:17;98783.34;;;9.52;78.17
35694;BME280;21812;55.536;37.664;2022-10-19T11:13:45;98761.00;;;9.39;77.85
35694;BME280;21812;55.536;37.664;2022-10-19T11:16:18;98783.34;;;9.52;77.95
35694;BME280;21812;55.536;37.664;2022-10-19T11:21:41;98764.91;;;9.44;77.63
35694;BME280;21812;55.536;37.664;2022-10-19T11:27:52;98783.31;;;9.65;78.69
35694;BME280;21812;55.536;37.664;2022-10-19T11:30:24;98783.34;;;9.58;78.21
35694;BME280;21812;55.536;37.664;2022-10-19T11:33:06;98782.72;;;9.70;78.14
35694;BME280;21812;55.536;37.664;2022-10-19T11:35:49;98756.28;;;9.55;77.65
35694;BME280;21812;55.536;37.664;2022-10-19T12:00:13;98765.72;;;9.64;77.31
35694;BME280;21812;55.536;37.664;2022-10-19T12:11:01;98759.34;;;9.52;78.12
35694;BME280;21812;55.536;37.664;2022-10-19T12:13:42;98758.75;;;9.56;77.88
35694;BME280;21812;55.536;37.664;2022-10-19T12:16:12;98732.94;;;9.30;77.95
35694;BME280;21812;55.536;37.664;2022-10-19T12:18:47;98768.38;;;9.44;77.48
35694;BME280;21812;55.536;37.664;2022-10-19T12:23:47;98772.50;;;9.60;78.01
35694;BME280;21812;55.536;37.664;2022-10-19T12:26:18;98734.16;;;9.48;77.18
35694;BME280;21812;55.536;37.664;2022-10-19T12:28:59;98739.06;;;9.64;77.62
35694;BME280;21812;55.536;37.664;2022-10-19T12:31:27;98779.44;;;9.74;77.08
35694;BME280;21812;55.536;37.664;2022-10-19T12:42:12;98796.44;;;9.80;76.41
35694;BME280;21812;55.536;37.664;2022-10-19T12:47:25;98797.09;;;9.62;76.25
35694;BME280;21812;55.536;37.664;2022-10-19T12:49:52;98798.72;;;9.56;76.39
35694;BME280;21812;55.536;37.664;2022-10-19T12:52:45;98803.03;;;9.64;76.01
35694;BME280;21812;55.536;37.664;2022-10-19T12:57:43;98760.19;;;9.46;76.16
35694;BME280;21812;55.536;37.664;2022-10-19T13:00:24;98771.03;;;9.57;76.33
35694;BME280;21812;55.536;37.664;2022-10-19T13:02:59;98800.97;;;9.66;75.86
35694;BME280;21812;55.536;37.664;2022-10-19T13:05:27;98803.84;;;9.65;76.08
35694;BME280;21812;55.536;37.664;2022-10-19T13:07:54;98797.69;;;9.64;75.81
35694;BME280;21812;55.536;37.664;2022-10-19T13:10:22;98775.56;;;9.44;75.95
35694;BME280;21812;55.536;37.664;2022-10-19T13:12:49;98807.56;;;9.50;75.98
35694;BME280;21812;55.536;37.664;2022-10-19T13:18:02;98813.28;;;9.41;76.51
35694;BME280;21812;55.536;37.664;2022-10-19T13:41:13;98818.81;;;9.46;76.31
35694;BME280;21812;55.536;37.664;2022-10-19T13:48:58;98822.09;;;9.48;76.95
35694;BME280;21812;55.536;37.664;2022-10-19T13:55:03;98823.13;;;9.53;76.63
35694;BME280;21812;55.536;37.664;2022-10-19T14:10:37;98829.69;;;9.37;77.26
35694;BME280;21812;55.536;37.664;2022-10-19T14:13:05;98807.53;;;9.17;77.91
35694;BME280;21812;55.536;37.664;2022-10-19T14:15:36;98830.50;;;9.31;77.46
35694;BME280;21812;55.536;37.664;2022-10-19T14:18:01;98821.06;;;9.29;77.46
35694;BME280;21812;55.536;37.664;2022-10-19T14:22:53;98824.31;;;9.31;77.57
35694;BME280;21812;55.536;37.664;2022-10-19T14:25:21;98825.16;;;9.31;77.79
35694;BME280;21812;55.536;37.664;2022-10-19T14:27:58;98814.69;;;9.23;77.71
35694;BME280;21812;55.536;37.664;2022-10-19T14:30:29;98828.44;;;9.27;77.83
35694;BME280;21812;55.536;37.664;2022-10-19T14:32:58;98840.28;;;9.17;77.71
35694;BME280;21812;55.536;37.664;2022-10-19T14:35:30;98839.91;;;9.20;78.15
35694;BME280;21812;55.536;37.664;2022-10-19T14:37:56;98842.38;;;9.22;78.42
35694;BME280;21812;55.536;37.664;2022-10-19T14:40:36;98817.75;;;9.13;77.87
35694;BME280;21812;55.536;37.664;2022-10-19T14:43:18;98840.34;;;9.37;77.70
35694;BME280;21812;55.536;37.664;2022-10-19T14:48:38;98844.00;;;9.36;77.27
35694;BME280;21812;55.536;37.664;2022-10-19T14:51:13;98853.88;;;9.43;77.15
35694;BME280;21812;55.536;37.664;2022-10-19T14:53:45;98818.41;;;9.22;76.78
35694;BME280;21812;55.536;37.664;2022-10-19T14:59:21;98846.06;;;10.80;76.46
35694;BME280;21812;55.536;37.664;2022-10-19T15:01:49;98816.94;;;11.35;77.67
35694;BME280;21812;55.536;37.664;2022-10-19T15:04:22;98847.44;;;11.78;73.59
35694;BME280;21812;55.536;37.664;2022-10-19T15:06:49;98857.13;;;11.79;71.76
35694;BME280;21812;55.536;37.664;2022-10-19T15:09:33;98800.91;;;11.60;69.77
35694;BME280;21812;55.536;37.664;2022-10-19T15:12:13;98848.22;;;12.47;72.33
35694;BME280;21812;55.536;37.664;2022-10-19T15:14:40;98856.22;;;13.02;69.89
35694;BME280;21812;55.536;37.664;2022-10-19T15:17:21;98863.84;;;13.59;68.94
35694;BME280;21812;55.536;37.664;2022-10-19T15:19:48;98856.66;;;13.83;66.24
35694;BME280;21812;55.536;37.664;2022-10-19T15:32:31;98861.16;;;14.54;61.14
35694;BME280;21812;55.536;37.664;2022-10-19T15:35:11;98858.84;;;14.98;63.89
35694;BME280;21812;55.536;37.664;2022-10-19T15:37:44;98861.81;;;15.13;59.69
35694;BME280;21812;55.536;37.664;2022-10-19T15:40:33;98862.75;;;15.36;59.41
35694;BME280;21812;55.536;37.664;2022-10-19T15:42:59;98855.69;;;15.47;59.91
35694;BME280;21812;55.536;37.664;2022-10-19T15:45:36;98829.75;;;15.23;57.84
35694;BME280;21812;55.536;37.664;2022-10-19T15:50:38;98875.44;;;13.72;57.85
35694;BME280;21812;55.536;37.664;2022-10-19T15:53:06;98881.59;;;13.00;60.22
35694;BME280;21812;55.536;37.664;2022-10-19T15:55:32;98886.16;;;12.44;62.47
35694;BME280;21812;55.536;37.664;2022-10-19T15:57:58;98895.22;;;11.99;64.12
35694;BME280;21812;55.536;37.664;2022-10-19T16:00:25;98895.88;;;11.69;65.04
35694;BME280;21812;55.536;37.664;2022-10-19T16:02:52;98900.97;;;11.46;65.76